createdAt,value
2022-09-14T00:01:08.142Z,100.00
2022-09-14T00:06:14.081Z,100.00
2022-09-14T00:11:17.859Z,100.00
2022-09-14T00:16:21.184Z,100.00
2022-09-14T00:21:24.909Z,100.00
2022-09-14T00:26:28.518Z,100.00
2022-09-14T00:31:32.007Z,100.00
2022-09-14T00:36:35.288Z,100.00
2022-09-14T00:41:38.541Z,100.00
2022-09-14T00:46:41.848Z,100.00
2022-09-14T00:51:45.171Z,100.00
2022-09-14T00:56:48.472Z,100.00
2022-09-14T01:01:51.906Z,100.00
2022-09-14T01:06:55.222Z,100.00
2022-09-14T01:11:58.463Z,100.00
2022-09-14T01:17:02.104Z,100.00
2022-09-14T01:22:05.412Z,100.00
2022-09-14T01:27:08.595Z,100.00
2022-09-14T01:32:11.739Z,100.00
2022-09-14T01:37:15.114Z,100.00
2022-09-14T01:42:18.668Z,100.00
2022-09-14T01:47:23.266Z,100.00
2022-09-14T01:52:27.337Z,100.00
2022-09-14T01:57:31.950Z,100.00
2022-09-14T02:02:36.339Z,100.00
2022-09-14T02:07:39.685Z,100.00
2022-09-14T02:12:43.053Z,100.00
2022-09-14T02:17:46.228Z,100.00
2022-09-14T02:22:48.957Z,100.00
2022-09-14T02:27:52.533Z,100.00
2022-09-14T02:32:55.296Z,100.00
2022-09-14T02:37:57.940Z,100.00
2022-09-14T02:43:00.793Z,100.00
2022-09-14T02:48:03.636Z,100.00
2022-09-14T02:53:06.392Z,100.00
2022-09-14T02:58:09.113Z,100.00
2022-09-14T03:03:11.810Z,100.00
2022-09-14T03:08:14.557Z,100.00
2022-09-14T03:13:17.325Z,100.00
2022-09-14T03:18:19.990Z,100.00
2022-09-14T03:23:23.815Z,100.00
2022-09-14T03:28:26.537Z,100.00
2022-09-14T03:33:29.231Z,100.00
2022-09-14T03:38:32.074Z,100.00
2022-09-14T03:43:34.808Z,100.00
2022-09-14T03:48:37.600Z,100.00
2022-09-14T03:53:40.403Z,100.00
2022-09-14T03:58:43.262Z,100.00
2022-09-14T04:03:46.027Z,100.00
2022-09-14T04:08:48.807Z,100.00
2022-09-14T04:13:51.557Z,100.00
2022-09-14T04:18:54.248Z,100.00
2022-09-14T04:24:14.513Z,100.00
2022-09-14T04:29:18.208Z,100.00
2022-09-14T04:34:26.523Z,100.00
2022-09-14T04:39:29.313Z,100.00
2022-09-14T04:44:32.192Z,100.00
2022-09-14T04:49:35.109Z,100.00
2022-09-14T04:54:37.892Z,100.00
2022-09-14T04:59:40.643Z,100.00
2022-09-14T05:04:43.781Z,100.00
2022-09-14T05:09:46.447Z,100.00
2022-09-14T05:14:49.259Z,100.00
2022-09-14T05:19:52.153Z,100.00
2022-09-14T05:24:54.908Z,100.00
2022-09-14T05:29:57.615Z,100.00
2022-09-14T05:35:00.370Z,100.00
2022-09-14T05:40:03.241Z,100.00
2022-09-14T05:45:05.971Z,100.00
2022-09-14T05:50:09.632Z,100.00
2022-09-14T05:55:12.462Z,100.00
2022-09-14T06:00:15.514Z,100.00
2022-09-14T06:05:18.471Z,100.00
2022-09-14T06:10:21.384Z,100.00
2022-09-14T06:15:25.568Z,100.00
2022-09-14T06:20:28.308Z,100.00
2022-09-14T06:25:31.471Z,100.00
2022-09-14T06:30:35.137Z,100.00
2022-09-14T06:35:38.029Z,100.00
2022-09-14T06:40:40.833Z,100.00
2022-09-14T06:45:44.514Z,100.00
2022-09-14T06:50:47.246Z,100.00
2022-09-14T06:55:50.045Z,100.00
2022-09-14T07:00:52.738Z,100.00
2022-09-14T07:05:55.450Z,100.00
2022-09-14T07:10:58.903Z,100.00
2022-09-14T07:16:06.086Z,100.00
2022-09-14T07:21:09.168Z,100.00
2022-09-14T07:26:11.932Z,100.00
2022-09-14T07:31:14.723Z,100.00
2022-09-14T07:36:18.468Z,100.00
2022-09-14T07:41:21.283Z,100.00
2022-09-14T07:46:24.150Z,100.00
2022-09-14T07:51:26.977Z,100.00
2022-09-14T07:56:29.682Z,100.00
2022-09-14T08:01:32.450Z,97.96
2022-09-14T08:06:37.167Z,93.91
2022-09-14T08:11:40.420Z,89.19
2022-09-14T08:16:43.682Z,87.29
2022-09-14T08:21:47.823Z,87.53
2022-09-14T08:26:51.306Z,86.76
2022-09-14T08:31:54.661Z,86.42
2022-09-14T08:36:57.977Z,85.76
2022-09-14T08:42:02.073Z,84.07
2022-09-14T08:47:05.378Z,80.48
2022-09-14T08:52:08.693Z,80.46
2022-09-14T08:57:11.901Z,78.74
2022-09-14T09:02:15.566Z,77.32
2022-09-14T09:07:20.170Z,75.54
2022-09-14T09:12:23.441Z,73.48
2022-09-14T09:17:26.796Z,71.92
2022-09-14T09:22:30.149Z,68.45
2022-09-14T09:27:33.422Z,64.95
2022-09-14T09:32:36.737Z,63.58
2022-09-14T09:37:40.165Z,61.29
2022-09-14T09:42:43.378Z,60.47
2022-09-14T09:47:46.924Z,61.42
2022-09-14T09:52:50.215Z,66.88
2022-09-14T09:57:56.134Z,67.68
2022-09-14T10:03:02.472Z,67.22
2022-09-14T10:08:11.221Z,62.06
2022-09-14T10:13:14.867Z,59.64
2022-09-14T10:18:18.077Z,61.38
2022-09-14T10:23:21.491Z,61.26
2022-09-14T10:28:24.818Z,60.93
2022-09-14T10:33:35.170Z,61.46
2022-09-14T10:38:38.307Z,63.60
2022-09-14T10:43:41.522Z,65.22
2022-09-14T10:48:44.757Z,64.85
2022-09-14T10:53:48.005Z,66.16
2022-09-14T10:58:51.287Z,64.81
2022-09-14T11:03:54.816Z,64.52
2022-09-14T11:08:58.362Z,65.38
2022-09-14T11:14:02.293Z,61.79
2022-09-14T11:19:05.527Z,64.66
2022-09-14T11:24:09.180Z,65.66
2022-09-14T11:29:12.519Z,65.62
2022-09-14T11:34:15.899Z,65.48
2022-09-14T11:39:19.213Z,65.00
2022-09-14T11:44:22.537Z,64.25
2022-09-14T11:49:25.738Z,63.37
2022-09-14T11:54:28.986Z,62.98
2022-09-14T11:59:32.346Z,60.81
2022-09-14T12:04:35.704Z,62.25
2022-09-14T12:09:38.996Z,61.25
2022-09-14T12:14:44.549Z,60.24
2022-09-14T12:19:52.883Z,60.15
2022-09-14T12:24:56.091Z,56.45
2022-09-14T12:29:59.452Z,55.62
2022-09-14T12:35:02.752Z,55.97
2022-09-14T12:40:06.111Z,55.90
2022-09-14T12:45:09.477Z,55.48
2022-09-14T12:50:12.774Z,54.98
2022-09-14T12:55:16.113Z,55.79
2022-09-14T13:00:19.985Z,55.50
2022-09-14T13:05:23.941Z,56.08
2022-09-14T13:10:28.746Z,56.92
2022-09-14T13:15:36.856Z,58.99
2022-09-14T13:20:40.469Z,60.32
2022-09-14T13:25:43.818Z,60.97
2022-09-14T13:30:47.050Z,62.07
2022-09-14T13:35:50.282Z,62.02
2022-09-14T13:40:53.645Z,62.55
2022-09-14T13:45:57.173Z,63.37
2022-09-14T13:51:00.470Z,61.84
2022-09-14T13:56:03.749Z,62.80
2022-09-14T14:01:07.001Z,62.73
2022-09-14T14:06:10.236Z,64.82
2022-09-14T14:11:13.381Z,68.03
2022-09-14T14:16:16.931Z,69.28
2022-09-14T14:21:20.143Z,71.07
2022-09-14T14:26:23.470Z,73.43
2022-09-14T14:31:26.670Z,72.74
2022-09-14T14:36:32.242Z,72.90
2022-09-14T14:41:40.194Z,68.28
2022-09-14T14:46:44.353Z,71.27
2022-09-14T14:51:47.905Z,70.73
2022-09-14T14:56:51.225Z,71.21
2022-09-14T15:01:55.115Z,70.96
2022-09-14T15:06:58.514Z,69.57
2022-09-14T15:12:01.817Z,69.14
2022-09-14T15:17:05.010Z,70.63
2022-09-14T15:22:08.576Z,76.19
2022-09-14T15:27:12.218Z,81.71
2022-09-14T15:32:15.765Z,86.95
2022-09-14T15:37:19.076Z,91.62
2022-09-14T15:42:22.836Z,93.90
2022-09-14T15:47:35.609Z,95.86
2022-09-14T15:52:39.973Z,100.00
2022-09-14T15:57:43.176Z,100.00
2022-09-14T16:02:46.171Z,100.00
2022-09-14T16:07:49.490Z,100.00
2022-09-14T16:12:52.699Z,100.00
2022-09-14T16:17:56.734Z,100.00
2022-09-14T16:23:00.113Z,100.00
2022-09-14T16:28:02.977Z,100.00
2022-09-14T16:33:05.791Z,100.00
2022-09-14T16:38:08.454Z,100.00
2022-09-14T16:43:11.316Z,100.00
2022-09-14T16:48:14.071Z,100.00
2022-09-14T16:53:16.897Z,100.00
2022-09-14T16:58:20.530Z,100.00
2022-09-14T17:03:31.727Z,100.00
2022-09-14T17:08:38.732Z,100.00
2022-09-14T17:13:45.043Z,100.00
2022-09-14T17:18:50.451Z,100.00
2022-09-14T17:23:53.326Z,100.00
2022-09-14T17:28:56.154Z,100.00
2022-09-14T17:33:58.916Z,100.00
2022-09-14T17:39:02.327Z,100.00
2022-09-14T17:44:05.104Z,100.00
2022-09-14T17:49:10.500Z,100.00
2022-09-14T17:54:13.503Z,100.00
2022-09-14T17:59:18.035Z,100.00
2022-09-14T18:04:20.808Z,100.00
2022-09-14T18:09:24.401Z,100.00
2022-09-14T18:14:27.155Z,100.00
2022-09-14T18:19:30.517Z,100.00
2022-09-14T18:24:33.484Z,100.00
2022-09-14T18:29:36.351Z,100.00
2022-09-14T18:34:39.274Z,100.00
2022-09-14T18:39:42.509Z,100.00
2022-09-14T18:44:45.332Z,100.00
2022-09-14T18:49:49.516Z,100.00
2022-09-14T18:54:52.434Z,100.00
2022-09-14T18:59:56.517Z,100.00
2022-09-14T19:04:59.521Z,100.00
2022-09-14T19:10:02.242Z,100.00
2022-09-14T19:15:05.127Z,100.00
2022-09-14T19:20:10.999Z,100.00
2022-09-14T19:25:14.167Z,100.00
2022-09-14T19:30:16.877Z,100.00
2022-09-14T19:35:20.104Z,100.00
2022-09-14T19:40:24.262Z,100.00
2022-09-14T19:45:27.273Z,100.00
2022-09-14T19:50:30.335Z,100.00
2022-09-14T19:55:33.066Z,100.00
2022-09-14T20:00:35.977Z,100.00
2022-09-14T20:05:38.678Z,100.00
2022-09-14T20:10:41.401Z,100.00
2022-09-14T20:15:44.568Z,100.00
2022-09-14T20:20:47.385Z,100.00
2022-09-14T20:25:50.100Z,100.00
2022-09-14T20:30:52.792Z,100.00
2022-09-14T20:35:55.558Z,100.00
2022-09-14T20:40:58.978Z,100.00
2022-09-14T20:46:01.705Z,100.00
2022-09-14T20:51:05.561Z,100.00
2022-09-14T20:56:08.617Z,100.00
2022-09-14T21:01:11.354Z,100.00
2022-09-14T21:06:14.542Z,100.00
2022-09-14T21:11:17.705Z,100.00
2022-09-14T21:16:20.846Z,100.00
2022-09-14T21:21:23.671Z,100.00
2022-09-14T21:26:26.370Z,100.00
2022-09-14T21:31:30.028Z,100.00
2022-09-14T21:36:34.608Z,100.00
2022-09-14T21:41:37.359Z,100.00
2022-09-14T21:46:40.197Z,100.00
2022-09-14T21:51:43.100Z,100.00
2022-09-14T21:56:46.335Z,100.00
2022-09-14T22:01:49.252Z,100.00
2022-09-14T22:06:53.234Z,100.00
2022-09-14T22:11:55.951Z,100.00
2022-09-14T22:16:58.636Z,100.00
2022-09-14T22:22:02.362Z,100.00
2022-09-14T22:27:05.599Z,100.00
2022-09-14T22:32:14.499Z,100.00
2022-09-14T22:37:17.335Z,100.00
2022-09-14T22:42:20.331Z,100.00
2022-09-14T22:47:23.130Z,100.00
2022-09-14T22:52:25.959Z,100.00
2022-09-14T22:57:28.755Z,100.00
2022-09-14T23:02:31.800Z,100.00
2022-09-14T23:07:34.579Z,100.00
2022-09-14T23:12:37.274Z,100.00
2022-09-14T23:17:40.025Z,100.00
2022-09-14T23:22:42.739Z,100.00
2022-09-14T23:27:45.453Z,100.00
2022-09-14T23:32:48.201Z,100.00
2022-09-14T23:37:50.935Z,100.00
2022-09-14T23:42:53.687Z,100.00
2022-09-14T23:47:57.868Z,100.00
2022-09-14T23:53:05.290Z,100.00
2022-09-14T23:58:15.529Z,100.00
